x

West Dixon Entrance (46205) Wave Buoy

12:00am - Sun 31st Jul 2016 All times are PDT. -7 hours from GMT.

  • Sig Wave height 3.9ft
  • Peak Period 8s
  • Wind
    13mph, 18mph gusts
  • Sea Temp 58°f
  • Air Temp 58°f
  • Sea Pressure 1020.9mb
  • West Dixon Entrance
  • West Dixon Entrance

More Historic Weather Station data

Upgrade to MSW Pro to gain access to the past 30 days of data for over 8000 Wavebouys and Weather Stations around the globe.

Join Pro

Comparision Forecast

View Surf forecast
   
Sun 07/31 12:00am 4ft 8s 13 18 mph 1020.9mb 58f 58f
Sat 07/30 11:00pm 4.5ft 8s 13 16 mph 1021mb 58f 58f
10:00pm 4.5ft 6s 13 16 mph 1020.9mb 58f 58f
9:00pm 4.5ft 8s 13 16 mph 1021mb 58f 58f
8:00pm 5ft 7s 13 16 mph 1021.3mb 58f 58f
7:00pm 4.5ft 8s 11 13 mph 1021.7mb 58f 58f
6:00pm 5ft 8s 11 13 mph 1021.9mb 58f 58f
5:00pm 5ft 8s 16 20 mph 1022.1mb 58f 58f
4:00pm 5.5ft 8s 13 18 mph 1022.2mb 58f 58f
3:00pm 6ft 8s 11 13 mph 1022.4mb 58f 58f
2:00pm 6ft 8s 13
mph
1022.1mb 58f 58f
1:00pm 6ft 8s 13 16 mph 1021.9mb 58f 58f
12:00pm 6ft 8s 16 18 mph 1021.7mb 58f 58f
11:00am 6ft 8s 16 20 mph 1021.5mb 58f 58f
10:00am 5.5ft 8s 16 20 mph 1021.6mb 58f 58f
9:00am 6ft 8s 16 20 mph 1021.4mb 58f 58f
8:00am 6.5ft 8s 16 20 mph 1021.5mb 58f 58f
7:00am 6ft 8s 18 22 mph 1021.5mb 58f 58f
6:00am 7ft 8s 20 25 mph 1021.5mb 58f 58f
5:00am 6ft 8s 18 22 mph 1021.8mb 58f 58f
4:00am 6ft 8s 18 25 mph 1022mb 58f 58f
3:00am 6ft 8s 18 22 mph 1022.2mb 58f 58f
2:00am 6ft 7s 18 20 mph 1022.4mb 58f 58f
1:00am 5.5ft 8s 18 20 mph 1022.7mb 58f 58f
12:00am 5.5ft 7s 18 25 mph 1022.9mb 58f 58f
Fri 07/29 11:00pm 5ft 7s 18 22 mph 1023.1mb 58f 57f
10:00pm 5ft 8s 18 22 mph 1023.4mb 58f 57f
9:00pm 5ft 7s 16 20 mph 1023.7mb 58f 58f
8:00pm 4.5ft 7s 18 20 mph 1024.2mb 58f 58f
7:00pm 4.5ft 7s 16 18 mph 1024.7mb 58f 58f
6:00pm 5ft 7s 16 20 mph 1025.1mb 58f 58f
5:00pm 4.5ft 7s 16 20 mph 1025.4mb 58f 58f
4:00pm 4.5ft 7s 16 18 mph 1025.8mb 58f 58f
3:00pm 4.5ft 7s 18 20 mph 1025.7mb 58f 59f
2:00pm 4.5ft 7s 13 16 mph 1025.6mb 58f 59f
1:00pm 4.5ft 8s 13 16 mph 1025.4mb 58f 59f
12:00pm 4ft 8s 16 18 mph 1025.5mb 58f 58f
11:00am 3.5ft 7s 16 20 mph 1025.2mb 58f 58f
10:00am 3.5ft 7s 11 13 mph 1025.1mb 58f 58f
9:00am 3.5ft 8s 11 13 mph 1025mb 58f 56f
8:00am 4ft 8s 13 16 mph 1024.9mb 58f 57f
7:00am 4.5ft 8s 11 13 mph 1024.7mb 58f 57f
6:00am 4ft 7s 13 18 mph 1024.7mb 58f 58f
5:00am 4ft 8s 9 11 mph 1024.9mb 58f 58f
4:00am 4ft 8s 11 13 mph 1025.1mb 58f 58f
3:00am 4.5ft 8s 11 13 mph 1025.4mb 58f 58f
2:00am 4.5ft 8s 11 13 mph 1025.4mb 58f 58f
1:00am 4ft 8s 7 9 mph 1025.4mb 58f 58f
12:00am 4ft 7s 7 9 mph 1025.3mb 58f 57f
Thu 07/28 11:00pm 4ft 8s 11 13 mph 1025.1mb 58f 58f
10:00pm 4ft 8s 7 9 mph 1025.2mb 58f 57f
9:00pm 4ft 8s 7 11 mph 1025mb 59f 57f
8:00pm 4.5ft 8s 11 18 mph 1024.8mb 59f 58f
7:00pm 4.5ft 8s 7 9 mph 1025.1mb 59f 58f
6:00pm 4.5ft 8s 7 9 mph 1025.1mb 59f 58f
5:00pm 5ft 8s 9
mph
1025.2mb 59f 58f
4:00pm 5ft 8s 7 9 mph 1025.5mb 59f 58f
3:00pm 5ft 8s 4 7 mph 1025.4mb 59f 58f
2:00pm 5ft 8s 4
mph
1025.5mb 58f 58f
1:00pm 5ft 8s 4 7 mph 1025.4mb 58f 57f
12:00pm 5ft 8s 9
mph
1024.9mb 58f 55f
11:00am 5.5ft 8s 9
mph
1024.5mb 58f 57f
10:00am 5.5ft 8s 7 9 mph 1024.1mb 58f 57f
9:00am 5.5ft 8s 9 11 mph 1023.8mb 58f 57f
8:00am 6ft 8s 9 11 mph 1023.5mb 58f 56f
7:00am 6ft 8s 11 13 mph 1023.1mb 58f 56f
6:00am 5.5ft 8s 11 13 mph 1022.9mb 58f 58f
5:00am 6ft 8s 9 11 mph 1022.6mb 58f 58f
4:00am 6ft 8s 11 13 mph 1022.5mb 58f 58f
3:00am 5.5ft 7s 11 13 mph 1022.4mb 58f 58f
2:00am 5.5ft 8s 13 16 mph 1022.1mb 58f 58f
1:00am 5ft 7s 16 18 mph 1021.9mb 57f 58f
12:00am 5ft 7s 18 20 mph 1021.8mb 58f 58f
Wed 07/27 11:00pm 6ft 8s 18 20 mph 1021.9mb 58f 58f
10:00pm 5.5ft 8s 18 22 mph 1021.5mb 58f 58f
9:00pm 5.5ft 8s 20 25 mph 1021.3mb 58f 58f
8:00pm 5.5ft 8s 18 20 mph 1021.1mb 58f 58f
7:00pm 5ft 8s 18 22 mph 1021.5mb 58f 58f
6:00pm 5ft 8s 18 20 mph 1021.6mb 58f 58f
5:00pm 5ft 8s 18 20 mph 1022mb 58f 58f
4:00pm 5ft 7s 18 22 mph 1022.2mb 58f 58f
3:00pm 4.5ft 7s 16 20 mph 1022.2mb 58f 58f
2:00pm 4.5ft 8s 16 18 mph 1022.3mb 58f 58f
1:00pm 4.5ft 8s 16 18 mph 1022.3mb 58f 58f
12:00pm 5ft 8s 16 18 mph 1022.1mb 58f 58f
11:00am 4.5ft 7s 16 20 mph 1021.9mb 58f 58f
10:00am 5ft 7s 16 20 mph 1021.8mb 58f 58f
9:00am 4.5ft 8s 16 20 mph 1021.6mb 58f 58f